Terminal Aerodrome Forecast
Issued by NWS

Home | Current Version | Previous Version | Graphics & Text | Print | Product List | Glossary On
Versions: 1 2 3 4 5 6 7 8 9 10 11 12 13 14 15 16 17
000
FTUS43 KIWX 052339
TAFSBN
TAF
KSBN 052339Z 0600/0624 12006KT P6SM OVC007
     FM060400 11006KT 3SM BR SCT008
      TEMPO 0607/0611 1SM BR BKN008
     FM061500 15006KT P6SM SCT020 BKN040
     FM062100 27012KT P6SM OVC010=

USA.gov is the U.S. government's official web portal to all federal, state and local government web resources and services.